sensor_id;sensor_type;location;lat;lon;timestamp;P1;durP1;ratioP1;P2;durP2;ratioP2
20776;SDS011;10548;47.504;8.248;2024-03-07T00:00:07;29.63;;;18.63;;
20776;SDS011;10548;47.504;8.248;2024-03-07T00:02:42;38.17;;;19.97;;
20776;SDS011;10548;47.504;8.248;2024-03-07T00:05:10;32.23;;;20.23;;
20776;SDS011;10548;47.504;8.248;2024-03-07T00:07:40;26.50;;;18.20;;
20776;SDS011;10548;47.504;8.248;2024-03-07T00:10:08;28.17;;;19.40;;
20776;SDS011;10548;47.504;8.248;2024-03-07T00:12:36;32.53;;;19.47;;
20776;SDS011;10548;47.504;8.248;2024-03-07T00:15:06;31.97;;;18.97;;
20776;SDS011;10548;47.504;8.248;2024-03-07T00:17:33;33.90;;;20.50;;
20776;SDS011;10548;47.504;8.248;2024-03-07T00:20:02;28.33;;;18.57;;
20776;SDS011;10548;47.504;8.248;2024-03-07T00:22:42;27.60;;;18.40;;
20776;SDS011;10548;47.504;8.248;2024-03-07T00:25:10;28.03;;;17.93;;
20776;SDS011;10548;47.504;8.248;2024-03-07T00:27:40;30.27;;;19.27;;
20776;SDS011;10548;47.504;8.248;2024-03-07T00:30:08;25.97;;;18.40;;
20776;SDS011;10548;47.504;8.248;2024-03-07T00:32:36;26.13;;;18.07;;
20776;SDS011;10548;47.504;8.248;2024-03-07T00:35:06;29.10;;;19.27;;
20776;SDS011;10548;47.504;8.248;2024-03-07T00:37:37;30.03;;;18.50;;
20776;SDS011;10548;47.504;8.248;2024-03-07T00:40:08;34.80;;;21.30;;
20776;SDS011;10548;47.504;8.248;2024-03-07T00:42:37;28.03;;;19.57;;
20776;SDS011;10548;47.504;8.248;2024-03-07T00:45:05;25.33;;;19.23;;
20776;SDS011;10548;47.504;8.248;2024-03-07T00:47:33;29.77;;;19.70;;
20776;SDS011;10548;47.504;8.248;2024-03-07T00:50:01;28.83;;;19.73;;
20776;SDS011;10548;47.504;8.248;2024-03-07T00:52:29;32.33;;;20.77;;
20776;SDS011;10548;47.504;8.248;2024-03-07T00:54:57;31.43;;;21.03;;
20776;SDS011;10548;47.504;8.248;2024-03-07T00:57:24;32.33;;;21.30;;
20776;SDS011;10548;47.504;8.248;2024-03-07T00:59:52;28.97;;;19.97;;
20776;SDS011;10548;47.504;8.248;2024-03-07T01:02:20;34.90;;;22.10;;
20776;SDS011;10548;47.504;8.248;2024-03-07T01:04:47;33.23;;;21.33;;
20776;SDS011;10548;47.504;8.248;2024-03-07T01:07:15;30.73;;;20.77;;
20776;SDS011;10548;47.504;8.248;2024-03-07T01:09:43;31.17;;;21.17;;
20776;SDS011;10548;47.504;8.248;2024-03-07T01:12:10;36.63;;;23.77;;
20776;SDS011;10548;47.504;8.248;2024-03-07T01:14:39;31.57;;;20.67;;
20776;SDS011;10548;47.504;8.248;2024-03-07T01:17:06;33.07;;;21.50;;
20776;SDS011;10548;47.504;8.248;2024-03-07T01:19:35;33.30;;;22.23;;
20776;SDS011;10548;47.504;8.248;2024-03-07T01:22:04;35.03;;;22.00;;
20776;SDS011;10548;47.504;8.248;2024-03-07T01:24:32;32.03;;;21.30;;
20776;SDS011;10548;47.504;8.248;2024-03-07T01:27:00;36.90;;;22.43;;
20776;SDS011;10548;47.504;8.248;2024-03-07T01:29:28;32.10;;;20.93;;
20776;SDS011;10548;47.504;8.248;2024-03-07T01:31:56;36.63;;;23.20;;
20776;SDS011;10548;47.504;8.248;2024-03-07T01:34:23;35.70;;;23.13;;
20776;SDS011;10548;47.504;8.248;2024-03-07T01:36:51;36.00;;;23.00;;
20776;SDS011;10548;47.504;8.248;2024-03-07T01:39:18;31.60;;;21.37;;
20776;SDS011;10548;47.504;8.248;2024-03-07T01:41:46;34.60;;;21.47;;
20776;SDS011;10548;47.504;8.248;2024-03-07T01:44:14;34.90;;;21.97;;
20776;SDS011;10548;47.504;8.248;2024-03-07T01:46:43;42.80;;;23.77;;
20776;SDS011;10548;47.504;8.248;2024-03-07T01:49:11;31.40;;;21.40;;
20776;SDS011;10548;47.504;8.248;2024-03-07T01:51:38;30.87;;;21.13;;
20776;SDS011;10548;47.504;8.248;2024-03-07T01:54:07;36.90;;;21.70;;
20776;SDS011;10548;47.504;8.248;2024-03-07T01:56:36;33.00;;;21.30;;
20776;SDS011;10548;47.504;8.248;2024-03-07T01:59:04;33.83;;;21.63;;
20776;SDS011;10548;47.504;8.248;2024-03-07T02:01:34;29.63;;;19.93;;
20776;SDS011;10548;47.504;8.248;2024-03-07T02:04:03;38.47;;;22.77;;
20776;SDS011;10548;47.504;8.248;2024-03-07T02:06:32;35.57;;;22.00;;
20776;SDS011;10548;47.504;8.248;2024-03-07T02:09:00;41.57;;;24.00;;
20776;SDS011;10548;47.504;8.248;2024-03-07T02:11:29;41.33;;;23.23;;
20776;SDS011;10548;47.504;8.248;2024-03-07T02:13:57;39.17;;;23.07;;
20776;SDS011;10548;47.504;8.248;2024-03-07T02:16:25;35.80;;;21.77;;
20776;SDS011;10548;47.504;8.248;2024-03-07T02:18:53;39.40;;;23.80;;
20776;SDS011;10548;47.504;8.248;2024-03-07T02:21:21;35.00;;;21.47;;
20776;SDS011;10548;47.504;8.248;2024-03-07T02:23:50;35.63;;;22.07;;
20776;SDS011;10548;47.504;8.248;2024-03-07T02:26:18;33.27;;;20.87;;
20776;SDS011;10548;47.504;8.248;2024-03-07T02:28:45;34.47;;;22.70;;
20776;SDS011;10548;47.504;8.248;2024-03-07T02:31:13;32.37;;;20.23;;
20776;SDS011;10548;47.504;8.248;2024-03-07T02:33:41;33.73;;;21.97;;
20776;SDS011;10548;47.504;8.248;2024-03-07T02:36:08;33.17;;;20.23;;
20776;SDS011;10548;47.504;8.248;2024-03-07T02:38:36;40.87;;;23.77;;
20776;SDS011;10548;47.504;8.248;2024-03-07T02:41:04;33.73;;;21.40;;
20776;SDS011;10548;47.504;8.248;2024-03-07T02:43:32;32.13;;;20.70;;
20776;SDS011;10548;47.504;8.248;2024-03-07T02:46:04;32.63;;;21.17;;
20776;SDS011;10548;47.504;8.248;2024-03-07T02:48:33;38.07;;;21.97;;
20776;SDS011;10548;47.504;8.248;2024-03-07T02:51:00;33.07;;;20.70;;
20776;SDS011;10548;47.504;8.248;2024-03-07T02:53:28;34.70;;;21.90;;
20776;SDS011;10548;47.504;8.248;2024-03-07T02:55:56;40.03;;;22.93;;
20776;SDS011;10548;47.504;8.248;2024-03-07T02:58:24;35.63;;;22.33;;
20776;SDS011;10548;47.504;8.248;2024-03-07T03:00:56;42.33;;;24.80;;
20776;SDS011;10548;47.504;8.248;2024-03-07T03:03:25;39.30;;;22.97;;
20776;SDS011;10548;47.504;8.248;2024-03-07T03:05:53;39.90;;;23.07;;
20776;SDS011;10548;47.504;8.248;2024-03-07T03:08:21;36.23;;;22.90;;
20776;SDS011;10548;47.504;8.248;2024-03-07T03:10:49;43.33;;;24.27;;
20776;SDS011;10548;47.504;8.248;2024-03-07T03:13:20;39.30;;;24.13;;
20776;SDS011;10548;47.504;8.248;2024-03-07T03:15:47;45.83;;;24.83;;
20776;SDS011;10548;47.504;8.248;2024-03-07T03:18:15;43.50;;;24.80;;
20776;SDS011;10548;47.504;8.248;2024-03-07T03:20:43;45.97;;;24.93;;
20776;SDS011;10548;47.504;8.248;2024-03-07T03:23:14;41.73;;;24.10;;
20776;SDS011;10548;47.504;8.248;2024-03-07T03:25:47;47.03;;;25.93;;
20776;SDS011;10548;47.504;8.248;2024-03-07T03:28:15;46.27;;;25.83;;
20776;SDS011;10548;47.504;8.248;2024-03-07T03:30:47;48.47;;;25.53;;
20776;SDS011;10548;47.504;8.248;2024-03-07T03:33:14;52.83;;;27.53;;
20776;SDS011;10548;47.504;8.248;2024-03-07T03:35:43;48.83;;;26.03;;
20776;SDS011;10548;47.504;8.248;2024-03-07T03:38:11;45.00;;;25.03;;
20776;SDS011;10548;47.504;8.248;2024-03-07T03:40:39;44.27;;;23.77;;
20776;SDS011;10548;47.504;8.248;2024-03-07T03:43:06;47.33;;;25.77;;
20776;SDS011;10548;47.504;8.248;2024-03-07T03:45:34;50.83;;;25.60;;
20776;SDS011;10548;47.504;8.248;2024-03-07T03:48:02;45.27;;;25.30;;
20776;SDS011;10548;47.504;8.248;2024-03-07T03:50:30;49.63;;;24.77;;
20776;SDS011;10548;47.504;8.248;2024-03-07T03:52:58;45.53;;;23.40;;
20776;SDS011;10548;47.504;8.248;2024-03-07T03:55:28;56.30;;;26.90;;
20776;SDS011;10548;47.504;8.248;2024-03-07T03:57:55;45.57;;;23.77;;
20776;SDS011;10548;47.504;8.248;2024-03-07T04:00:23;47.93;;;25.07;;
20776;SDS011;10548;47.504;8.248;2024-03-07T04:02:51;54.83;;;26.13;;
20776;SDS011;10548;47.504;8.248;2024-03-07T04:05:19;48.60;;;23.73;;
20776;SDS011;10548;47.504;8.248;2024-03-07T04:07:48;53.93;;;25.17;;
20776;SDS011;10548;47.504;8.248;2024-03-07T04:10:17;46.67;;;24.30;;
20776;SDS011;10548;47.504;8.248;2024-03-07T04:12:44;46.73;;;23.90;;
20776;SDS011;10548;47.504;8.248;2024-03-07T04:15:13;55.87;;;25.80;;
20776;SDS011;10548;47.504;8.248;2024-03-07T04:17:46;48.80;;;24.70;;
20776;SDS011;10548;47.504;8.248;2024-03-07T04:20:15;46.90;;;24.20;;
20776;SDS011;10548;47.504;8.248;2024-03-07T04:22:46;44.07;;;22.80;;
20776;SDS011;10548;47.504;8.248;2024-03-07T04:25:16;46.33;;;23.53;;
20776;SDS011;10548;47.504;8.248;2024-03-07T04:27:44;46.27;;;23.30;;
20776;SDS011;10548;47.504;8.248;2024-03-07T04:30:12;46.80;;;24.77;;
20776;SDS011;10548;47.504;8.248;2024-03-07T04:32:43;52.57;;;24.13;;
20776;SDS011;10548;47.504;8.248;2024-03-07T04:35:11;37.23;;;20.93;;
20776;SDS011;10548;47.504;8.248;2024-03-07T04:37:43;42.43;;;22.27;;
20776;SDS011;10548;47.504;8.248;2024-03-07T04:40:14;44.33;;;22.33;;
20776;SDS011;10548;47.504;8.248;2024-03-07T04:42:44;48.10;;;23.93;;
20776;SDS011;10548;47.504;8.248;2024-03-07T04:45:12;50.27;;;25.27;;
20776;SDS011;10548;47.504;8.248;2024-03-07T04:47:40;47.17;;;23.87;;
20776;SDS011;10548;47.504;8.248;2024-03-07T04:50:09;43.37;;;22.90;;
20776;SDS011;10548;47.504;8.248;2024-03-07T04:52:37;50.43;;;25.63;;
20776;SDS011;10548;47.504;8.248;2024-03-07T04:55:09;49.33;;;25.00;;
20776;SDS011;10548;47.504;8.248;2024-03-07T04:57:37;55.93;;;26.00;;
20776;SDS011;10548;47.504;8.248;2024-03-07T05:00:07;47.73;;;25.47;;
20776;SDS011;10548;47.504;8.248;2024-03-07T05:02:36;52.53;;;25.67;;
20776;SDS011;10548;47.504;8.248;2024-03-07T05:05:03;46.77;;;23.73;;
20776;SDS011;10548;47.504;8.248;2024-03-07T05:07:31;52.03;;;25.40;;
20776;SDS011;10548;47.504;8.248;2024-03-07T05:09:59;51.83;;;25.23;;
20776;SDS011;10548;47.504;8.248;2024-03-07T05:12:27;51.57;;;27.30;;
20776;SDS011;10548;47.504;8.248;2024-03-07T05:14:54;56.00;;;26.97;;
20776;SDS011;10548;47.504;8.248;2024-03-07T05:17:22;56.13;;;27.83;;
20776;SDS011;10548;47.504;8.248;2024-03-07T05:19:50;54.87;;;25.87;;
20776;SDS011;10548;47.504;8.248;2024-03-07T05:22:17;59.33;;;26.70;;
20776;SDS011;10548;47.504;8.248;2024-03-07T05:24:49;60.37;;;27.27;;
20776;SDS011;10548;47.504;8.248;2024-03-07T05:27:16;56.43;;;25.80;;
20776;SDS011;10548;47.504;8.248;2024-03-07T05:29:44;58.73;;;27.53;;
20776;SDS011;10548;47.504;8.248;2024-03-07T05:32:22;62.10;;;27.47;;
20776;SDS011;10548;47.504;8.248;2024-03-07T05:34:50;55.37;;;24.53;;
20776;SDS011;10548;47.504;8.248;2024-03-07T05:37:18;53.53;;;25.67;;
20776;SDS011;10548;47.504;8.248;2024-03-07T05:39:48;53.57;;;25.50;;
20776;SDS011;10548;47.504;8.248;2024-03-07T05:42:16;55.03;;;27.50;;
20776;SDS011;10548;47.504;8.248;2024-03-07T05:44:44;46.17;;;24.50;;
20776;SDS011;10548;47.504;8.248;2024-03-07T05:47:12;71.20;;;28.80;;
20776;SDS011;10548;47.504;8.248;2024-03-07T05:49:40;50.97;;;25.37;;
20776;SDS011;10548;47.504;8.248;2024-03-07T05:52:08;54.10;;;24.77;;
20776;SDS011;10548;47.504;8.248;2024-03-07T05:54:35;55.03;;;25.07;;
20776;SDS011;10548;47.504;8.248;2024-03-07T05:57:03;52.13;;;25.53;;
20776;SDS011;10548;47.504;8.248;2024-03-07T05:59:39;52.10;;;25.73;;
20776;SDS011;10548;47.504;8.248;2024-03-07T06:02:07;52.50;;;24.50;;
20776;SDS011;10548;47.504;8.248;2024-03-07T06:04:35;59.40;;;31.47;;
20776;SDS011;10548;47.504;8.248;2024-03-07T06:07:03;67.93;;;28.50;;
20776;SDS011;10548;47.504;8.248;2024-03-07T06:09:32;54.30;;;27.37;;
20776;SDS011;10548;47.504;8.248;2024-03-07T06:12:00;61.10;;;28.47;;
20776;SDS011;10548;47.504;8.248;2024-03-07T06:14:41;54.77;;;27.80;;
20776;SDS011;10548;47.504;8.248;2024-03-07T06:17:09;75.63;;;30.10;;
20776;SDS011;10548;47.504;8.248;2024-03-07T06:19:37;56.67;;;26.40;;
20776;SDS011;10548;47.504;8.248;2024-03-07T06:22:05;54.13;;;25.53;;
20776;SDS011;10548;47.504;8.248;2024-03-07T06:24:35;54.47;;;25.40;;
20776;SDS011;10548;47.504;8.248;2024-03-07T06:27:03;50.33;;;25.73;;
20776;SDS011;10548;47.504;8.248;2024-03-07T06:29:42;35.73;;;20.23;;
20776;SDS011;10548;47.504;8.248;2024-03-07T06:32:10;51.13;;;25.37;;
20776;SDS011;10548;47.504;8.248;2024-03-07T06:34:38;48.53;;;25.13;;
20776;SDS011;10548;47.504;8.248;2024-03-07T06:37:06;57.57;;;26.90;;
20776;SDS011;10548;47.504;8.248;2024-03-07T06:39:35;48.40;;;23.63;;
20776;SDS011;10548;47.504;8.248;2024-03-07T06:42:03;50.00;;;25.03;;
20776;SDS011;10548;47.504;8.248;2024-03-07T06:44:32;42.80;;;22.50;;
20776;SDS011;10548;47.504;8.248;2024-03-07T06:47:00;39.83;;;23.07;;
20776;SDS011;10548;47.504;8.248;2024-03-07T06:49:28;39.93;;;21.37;;
20776;SDS011;10548;47.504;8.248;2024-03-07T06:51:57;36.57;;;20.50;;
20776;SDS011;10548;47.504;8.248;2024-03-07T06:54:24;47.80;;;23.60;;
20776;SDS011;10548;47.504;8.248;2024-03-07T06:56:52;39.13;;;21.57;;
20776;SDS011;10548;47.504;8.248;2024-03-07T06:59:20;48.20;;;23.10;;
20776;SDS011;10548;47.504;8.248;2024-03-07T07:01:49;41.40;;;22.37;;
20776;SDS011;10548;47.504;8.248;2024-03-07T07:04:18;52.03;;;25.70;;
20776;SDS011;10548;47.504;8.248;2024-03-07T07:06:46;44.43;;;22.93;;
20776;SDS011;10548;47.504;8.248;2024-03-07T07:09:14;38.93;;;21.93;;
20776;SDS011;10548;47.504;8.248;2024-03-07T07:11:45;40.20;;;22.23;;
20776;SDS011;10548;47.504;8.248;2024-03-07T07:14:14;40.10;;;20.57;;
20776;SDS011;10548;47.504;8.248;2024-03-07T07:16:42;39.30;;;21.57;;
20776;SDS011;10548;47.504;8.248;2024-03-07T07:19:12;32.57;;;18.70;;
20776;SDS011;10548;47.504;8.248;2024-03-07T07:21:40;36.90;;;19.63;;
20776;SDS011;10548;47.504;8.248;2024-03-07T07:24:08;36.33;;;19.83;;
20776;SDS011;10548;47.504;8.248;2024-03-07T07:26:37;36.20;;;19.93;;
20776;SDS011;10548;47.504;8.248;2024-03-07T07:29:05;34.43;;;19.37;;
20776;SDS011;10548;47.504;8.248;2024-03-07T07:31:34;44.37;;;21.37;;
20776;SDS011;10548;47.504;8.248;2024-03-07T07:34:02;36.50;;;20.53;;
20776;SDS011;10548;47.504;8.248;2024-03-07T07:36:31;38.20;;;21.17;;
20776;SDS011;10548;47.504;8.248;2024-03-07T07:38:58;36.10;;;21.00;;
20776;SDS011;10548;47.504;8.248;2024-03-07T07:41:26;31.67;;;18.70;;
20776;SDS011;10548;47.504;8.248;2024-03-07T07:43:54;27.13;;;15.73;;
20776;SDS011;10548;47.504;8.248;2024-03-07T07:46:23;27.50;;;17.63;;
20776;SDS011;10548;47.504;8.248;2024-03-07T07:48:51;26.50;;;16.40;;
20776;SDS011;10548;47.504;8.248;2024-03-07T07:51:19;22.83;;;15.67;;
20776;SDS011;10548;47.504;8.248;2024-03-07T07:53:47;23.40;;;14.23;;
20776;SDS011;10548;47.504;8.248;2024-03-07T07:56:14;27.57;;;16.00;;
20776;SDS011;10548;47.504;8.248;2024-03-07T07:58:42;26.60;;;15.83;;
20776;SDS011;10548;47.504;8.248;2024-03-07T08:01:10;24.67;;;15.83;;
20776;SDS011;10548;47.504;8.248;2024-03-07T08:03:38;23.67;;;15.47;;
20776;SDS011;10548;47.504;8.248;2024-03-07T08:06:07;20.70;;;13.77;;
20776;SDS011;10548;47.504;8.248;2024-03-07T08:08:35;22.30;;;14.23;;
20776;SDS011;10548;47.504;8.248;2024-03-07T08:11:03;21.80;;;14.47;;
20776;SDS011;10548;47.504;8.248;2024-03-07T08:13:31;24.03;;;15.77;;
20776;SDS011;10548;47.504;8.248;2024-03-07T08:15:58;23.60;;;14.63;;
20776;SDS011;10548;47.504;8.248;2024-03-07T08:18:26;21.23;;;14.20;;
20776;SDS011;10548;47.504;8.248;2024-03-07T08:20:54;23.07;;;14.60;;
20776;SDS011;10548;47.504;8.248;2024-03-07T08:23:22;22.73;;;14.40;;
20776;SDS011;10548;47.504;8.248;2024-03-07T08:25:52;24.13;;;15.60;;
20776;SDS011;10548;47.504;8.248;2024-03-07T08:28:20;23.93;;;15.37;;
20776;SDS011;10548;47.504;8.248;2024-03-07T08:30:47;22.23;;;14.70;;
20776;SDS011;10548;47.504;8.248;2024-03-07T08:33:15;22.87;;;15.00;;
20776;SDS011;10548;47.504;8.248;2024-03-07T08:35:43;26.73;;;16.30;;
20776;SDS011;10548;47.504;8.248;2024-03-07T08:38:11;26.60;;;16.17;;
20776;SDS011;10548;47.504;8.248;2024-03-07T08:40:39;21.90;;;14.80;;
20776;SDS011;10548;47.504;8.248;2024-03-07T08:43:07;25.00;;;15.87;;
20776;SDS011;10548;47.504;8.248;2024-03-07T08:45:34;25.13;;;15.47;;
20776;SDS011;10548;47.504;8.248;2024-03-07T08:48:03;25.07;;;16.03;;
20776;SDS011;10548;47.504;8.248;2024-03-07T08:50:32;28.60;;;15.80;;
20776;SDS011;10548;47.504;8.248;2024-03-07T08:53:01;27.17;;;16.47;;
20776;SDS011;10548;47.504;8.248;2024-03-07T08:55:29;30.20;;;15.50;;
20776;SDS011;10548;47.504;8.248;2024-03-07T08:58:03;24.30;;;15.27;;
20776;SDS011;10548;47.504;8.248;2024-03-07T09:00:34;24.33;;;16.13;;
20776;SDS011;10548;47.504;8.248;2024-03-07T09:03:05;26.50;;;15.60;;
20776;SDS011;10548;47.504;8.248;2024-03-07T09:05:39;24.23;;;15.40;;
20776;SDS011;10548;47.504;8.248;2024-03-07T09:08:07;26.13;;;14.87;;
20776;SDS011;10548;47.504;8.248;2024-03-07T09:10:35;28.77;;;17.23;;
20776;SDS011;10548;47.504;8.248;2024-03-07T09:13:03;31.03;;;18.13;;
20776;SDS011;10548;47.504;8.248;2024-03-07T09:15:33;24.17;;;16.23;;
20776;SDS011;10548;47.504;8.248;2024-03-07T09:18:00;26.40;;;16.83;;
20776;SDS011;10548;47.504;8.248;2024-03-07T09:20:31;27.93;;;15.77;;
20776;SDS011;10548;47.504;8.248;2024-03-07T09:22:58;27.03;;;17.07;;
20776;SDS011;10548;47.504;8.248;2024-03-07T09:25:27;24.63;;;16.40;;
20776;SDS011;10548;47.504;8.248;2024-03-07T09:27:54;26.40;;;15.57;;
20776;SDS011;10548;47.504;8.248;2024-03-07T09:30:22;29.53;;;16.40;;
20776;SDS011;10548;47.504;8.248;2024-03-07T09:32:53;26.83;;;15.47;;
20776;SDS011;10548;47.504;8.248;2024-03-07T09:35:22;29.20;;;16.77;;
20776;SDS011;10548;47.504;8.248;2024-03-07T09:37:50;26.80;;;15.77;;
20776;SDS011;10548;47.504;8.248;2024-03-07T09:40:18;28.03;;;16.67;;
20776;SDS011;10548;47.504;8.248;2024-03-07T09:42:46;31.07;;;17.03;;
20776;SDS011;10548;47.504;8.248;2024-03-07T09:45:19;25.73;;;15.97;;
20776;SDS011;10548;47.504;8.248;2024-03-07T09:47:48;27.97;;;16.37;;
20776;SDS011;10548;47.504;8.248;2024-03-07T09:50:18;29.43;;;15.83;;
20776;SDS011;10548;47.504;8.248;2024-03-07T09:52:46;23.50;;;15.53;;
20776;SDS011;10548;47.504;8.248;2024-03-07T09:55:19;26.97;;;16.47;;
20776;SDS011;10548;47.504;8.248;2024-03-07T09:57:48;29.03;;;16.83;;
20776;SDS011;10548;47.504;8.248;2024-03-07T10:00:17;27.60;;;16.43;;
20776;SDS011;10548;47.504;8.248;2024-03-07T10:02:58;26.20;;;14.90;;
20776;SDS011;10548;47.504;8.248;2024-03-07T10:05:27;27.53;;;16.63;;
20776;SDS011;10548;47.504;8.248;2024-03-07T10:07:55;27.93;;;16.50;;
20776;SDS011;10548;47.504;8.248;2024-03-07T10:10:23;27.67;;;16.57;;
20776;SDS011;10548;47.504;8.248;2024-03-07T10:12:51;25.47;;;14.20;;
20776;SDS011;10548;47.504;8.248;2024-03-07T10:15:30;24.00;;;14.63;;
20776;SDS011;10548;47.504;8.248;2024-03-07T10:17:58;24.73;;;14.23;;
20776;SDS011;10548;47.504;8.248;2024-03-07T10:20:30;23.13;;;13.67;;
20776;SDS011;10548;47.504;8.248;2024-03-07T10:22:58;21.87;;;13.23;;
20776;SDS011;10548;47.504;8.248;2024-03-07T10:25:28;21.53;;;12.43;;
20776;SDS011;10548;47.504;8.248;2024-03-07T10:27:56;23.30;;;13.30;;
20776;SDS011;10548;47.504;8.248;2024-03-07T10:30:25;23.13;;;14.10;;
20776;SDS011;10548;47.504;8.248;2024-03-07T10:32:55;25.33;;;13.70;;
20776;SDS011;10548;47.504;8.248;2024-03-07T10:35:24;21.23;;;13.63;;
20776;SDS011;10548;47.504;8.248;2024-03-07T10:37:55;22.40;;;13.67;;
20776;SDS011;10548;47.504;8.248;2024-03-07T10:40:23;24.13;;;14.40;;
20776;SDS011;10548;47.504;8.248;2024-03-07T10:42:55;26.13;;;14.60;;
20776;SDS011;10548;47.504;8.248;2024-03-07T10:45:24;29.97;;;17.43;;
20776;SDS011;10548;47.504;8.248;2024-03-07T10:47:57;19.83;;;12.70;;
20776;SDS011;10548;47.504;8.248;2024-03-07T10:53:19;29.60;;;14.67;;
20776;SDS011;10548;47.504;8.248;2024-03-07T10:56:00;23.47;;;13.97;;
20776;SDS011;10548;47.504;8.248;2024-03-07T10:58:42;25.40;;;15.00;;
20776;SDS011;10548;47.504;8.248;2024-03-07T11:01:12;26.07;;;16.67;;
20776;SDS011;10548;47.504;8.248;2024-03-07T11:03:40;26.43;;;16.30;;
20776;SDS011;10548;47.504;8.248;2024-03-07T11:06:09;30.77;;;17.57;;
20776;SDS011;10548;47.504;8.248;2024-03-07T11:08:38;28.00;;;17.70;;
20776;SDS011;10548;47.504;8.248;2024-03-07T11:11:06;32.70;;;17.87;;
20776;SDS011;10548;47.504;8.248;2024-03-07T11:13:35;31.13;;;19.63;;
20776;SDS011;10548;47.504;8.248;2024-03-07T11:16:04;52.60;;;32.60;;
20776;SDS011;10548;47.504;8.248;2024-03-07T11:18:32;28.10;;;17.90;;
20776;SDS011;10548;47.504;8.248;2024-03-07T11:21:00;30.97;;;17.47;;
20776;SDS011;10548;47.504;8.248;2024-03-07T11:23:30;30.87;;;16.83;;
20776;SDS011;10548;47.504;8.248;2024-03-07T11:26:08;31.17;;;21.03;;
20776;SDS011;10548;47.504;8.248;2024-03-07T11:28:38;29.17;;;17.33;;
20776;SDS011;10548;47.504;8.248;2024-03-07T11:31:25;30.17;;;17.10;;
20776;SDS011;10548;47.504;8.248;2024-03-07T11:34:12;30.27;;;18.27;;
20776;SDS011;10548;47.504;8.248;2024-03-07T11:36:48;32.27;;;18.50;;
20776;SDS011;10548;47.504;8.248;2024-03-07T11:42:04;29.60;;;18.03;;
20776;SDS011;10548;47.504;8.248;2024-03-07T11:44:33;32.67;;;19.30;;
20776;SDS011;10548;47.504;8.248;2024-03-07T11:47:06;30.60;;;18.63;;
20776;SDS011;10548;47.504;8.248;2024-03-07T11:49:37;32.87;;;20.30;;
20776;SDS011;10548;47.504;8.248;2024-03-07T11:52:05;30.50;;;18.70;;
20776;SDS011;10548;47.504;8.248;2024-03-07T11:54:39;26.07;;;16.57;;
20776;SDS011;10548;47.504;8.248;2024-03-07T11:57:15;34.87;;;22.20;;
20776;SDS011;10548;47.504;8.248;2024-03-07T11:59:47;29.30;;;18.47;;
20776;SDS011;10548;47.504;8.248;2024-03-07T12:02:21;28.27;;;17.83;;
20776;SDS011;10548;47.504;8.248;2024-03-07T12:04:49;31.23;;;18.10;;
20776;SDS011;10548;47.504;8.248;2024-03-07T12:07:17;32.00;;;19.40;;
20776;SDS011;10548;47.504;8.248;2024-03-07T12:09:46;30.67;;;18.27;;
20776;SDS011;10548;47.504;8.248;2024-03-07T12:12:17;32.57;;;19.27;;
20776;SDS011;10548;47.504;8.248;2024-03-07T12:14:45;30.47;;;18.03;;
20776;SDS011;10548;47.504;8.248;2024-03-07T12:17:15;33.03;;;18.73;;
20776;SDS011;10548;47.504;8.248;2024-03-07T12:19:44;27.10;;;17.10;;
20776;SDS011;10548;47.504;8.248;2024-03-07T12:22:13;30.60;;;18.20;;
20776;SDS011;10548;47.504;8.248;2024-03-07T12:24:41;24.87;;;16.27;;
20776;SDS011;10548;47.504;8.248;2024-03-07T12:27:09;30.13;;;18.27;;
20776;SDS011;10548;47.504;8.248;2024-03-07T12:29:38;27.83;;;18.23;;
20776;SDS011;10548;47.504;8.248;2024-03-07T12:32:06;27.80;;;17.33;;
20776;SDS011;10548;47.504;8.248;2024-03-07T12:34:34;29.87;;;18.07;;
20776;SDS011;10548;47.504;8.248;2024-03-07T12:37:04;31.33;;;19.70;;
20776;SDS011;10548;47.504;8.248;2024-03-07T12:39:33;33.30;;;19.67;;
20776;SDS011;10548;47.504;8.248;2024-03-07T12:42:02;31.43;;;19.43;;
20776;SDS011;10548;47.504;8.248;2024-03-07T12:44:46;31.93;;;20.77;;
20776;SDS011;10548;47.504;8.248;2024-03-07T12:47:16;32.07;;;19.40;;
20776;SDS011;10548;47.504;8.248;2024-03-07T12:49:45;34.13;;;19.27;;
20776;SDS011;10548;47.504;8.248;2024-03-07T12:52:12;40.07;;;23.90;;
20776;SDS011;10548;47.504;8.248;2024-03-07T12:54:41;30.27;;;19.00;;
20776;SDS011;10548;47.504;8.248;2024-03-07T12:57:09;33.33;;;18.83;;
20776;SDS011;10548;47.504;8.248;2024-03-07T12:59:38;33.00;;;19.10;;
20776;SDS011;10548;47.504;8.248;2024-03-07T13:02:09;32.87;;;18.40;;
20776;SDS011;10548;47.504;8.248;2024-03-07T13:04:37;34.57;;;19.73;;
20776;SDS011;10548;47.504;8.248;2024-03-07T13:07:09;31.20;;;18.13;;
20776;SDS011;10548;47.504;8.248;2024-03-07T13:09:37;30.70;;;19.40;;
20776;SDS011;10548;47.504;8.248;2024-03-07T13:12:07;33.73;;;17.63;;
20776;SDS011;10548;47.504;8.248;2024-03-07T13:14:36;30.77;;;18.30;;
20776;SDS011;10548;47.504;8.248;2024-03-07T13:17:04;34.97;;;20.90;;
20776;SDS011;10548;47.504;8.248;2024-03-07T13:19:32;29.97;;;18.37;;
20776;SDS011;10548;47.504;8.248;2024-03-07T13:22:00;31.10;;;18.70;;
20776;SDS011;10548;47.504;8.248;2024-03-07T13:24:28;31.00;;;18.07;;
20776;SDS011;10548;47.504;8.248;2024-03-07T13:26:57;34.23;;;19.30;;
20776;SDS011;10548;47.504;8.248;2024-03-07T13:29:24;33.57;;;18.30;;
20776;SDS011;10548;47.504;8.248;2024-03-07T13:31:52;28.83;;;18.13;;
20776;SDS011;10548;47.504;8.248;2024-03-07T13:34:23;29.10;;;18.33;;
20776;SDS011;10548;47.504;8.248;2024-03-07T13:36:52;32.93;;;19.17;;
20776;SDS011;10548;47.504;8.248;2024-03-07T13:39:20;33.43;;;19.00;;
20776;SDS011;10548;47.504;8.248;2024-03-07T13:41:48;30.23;;;18.07;;
20776;SDS011;10548;47.504;8.248;2024-03-07T13:44:15;34.20;;;18.83;;
20776;SDS011;10548;47.504;8.248;2024-03-07T13:46:45;31.83;;;18.30;;
20776;SDS011;10548;47.504;8.248;2024-03-07T13:49:13;31.73;;;18.63;;
20776;SDS011;10548;47.504;8.248;2024-03-07T13:51:41;33.50;;;19.20;;
20776;SDS011;10548;47.504;8.248;2024-03-07T13:54:17;30.90;;;18.10;;
20776;SDS011;10548;47.504;8.248;2024-03-07T13:57:01;29.53;;;18.20;;
20776;SDS011;10548;47.504;8.248;2024-03-07T13:59:51;33.40;;;17.30;;
20776;SDS011;10548;47.504;8.248;2024-03-07T14:13:59;32.63;;;17.97;;
20776;SDS011;10548;47.504;8.248;2024-03-07T14:19:26;27.07;;;16.63;;
20776;SDS011;10548;47.504;8.248;2024-03-07T14:22:07;32.60;;;17.93;;
20776;SDS011;10548;47.504;8.248;2024-03-07T14:28:03;31.40;;;16.53;;
20776;SDS011;10548;47.504;8.248;2024-03-07T14:30:52;28.17;;;17.07;;
20776;SDS011;10548;47.504;8.248;2024-03-07T14:33:26;28.60;;;16.77;;
20776;SDS011;10548;47.504;8.248;2024-03-07T14:36:09;34.90;;;17.30;;
20776;SDS011;10548;47.504;8.248;2024-03-07T14:38:43;27.47;;;16.57;;
20776;SDS011;10548;47.504;8.248;2024-03-07T14:41:17;30.10;;;16.67;;
20776;SDS011;10548;47.504;8.248;2024-03-07T14:43:46;28.67;;;16.83;;
20776;SDS011;10548;47.504;8.248;2024-03-07T14:46:14;27.57;;;17.00;;
20776;SDS011;10548;47.504;8.248;2024-03-07T14:48:42;29.67;;;17.67;;
20776;SDS011;10548;47.504;8.248;2024-03-07T14:51:11;32.97;;;16.80;;
20776;SDS011;10548;47.504;8.248;2024-03-07T14:53:41;26.10;;;16.10;;
20776;SDS011;10548;47.504;8.248;2024-03-07T14:56:10;29.03;;;16.27;;